Time;durP1;ratioP1;P1;durP2;ratioP2;P2;SDS_P1;SDS_P2;PMS_P1;PMS_P2;Temp;Humidity;BMP_temperature;BMP_pressure;BME280_temperature;BME280_humidity;BME280_pressure;Samples;Min_cycle;Max_cycle;Signal;HPM_P1;HPM_P2
2023/06/13 00:01:30;;;;;;;7.68;3.33;;;22.10;64.10;;;;;;5070192;28;20055;-60
2023/06/13 00:03:56;;;;;;;5.95;3.38;;;22.00;63.80;;;;;;5069983;28;20139;-60
2023/06/13 00:06:22;;;;;;;6.20;3.78;;;21.90;63.90;;;;;;5051496;28;20063;-59
2023/06/13 00:08:48;;;;;;;10.63;3.60;;;21.80;64.00;;;;;;5053115;28;20071;-60
2023/06/13 00:11:14;;;;;;;7.35;3.70;;;21.80;64.20;;;;;;5053226;28;20032;-59
2023/06/13 00:13:41;;;;;;;8.10;3.38;;;21.60;64.20;;;;;;5071578;28;20051;-59
2023/06/13 00:16:08;;;;;;;7.82;3.70;;;21.60;64.20;;;;;;5071397;28;20059;-60
2023/06/13 00:18:35;;;;;;;6.82;3.55;;;21.50;64.20;;;;;;5071859;28;20071;-60
2023/06/13 00:21:01;;;;;;;7.97;3.60;;;21.40;64.30;;;;;;5053421;28;20127;-58
2023/06/13 00:23:26;;;;;;;5.60;4.07;;;21.30;64.40;;;;;;5071811;28;20116;-59
2023/06/13 00:25:53;;;;;;;6.78;4.35;;;21.30;64.60;;;;;;5053382;28;20040;-59
2023/06/13 00:28:19;;;;;;;9.43;3.92;;;21.20;64.80;;;;;;5071040;28;20036;-59
2023/06/13 00:30:45;;;;;;;6.15;3.85;;;21.10;64.80;;;;;;5071242;28;20037;-59
2023/06/13 00:33:17;;;;;;;9.43;4.20;;;21.10;65.00;;;;;;5071104;28;20052;-60
2023/06/13 00:35:46;;;;;;;8.15;3.88;;;21.00;65.20;;;;;;5071030;28;20044;-59
2023/06/13 00:38:12;;;;;;;6.75;3.80;;;20.90;65.50;;;;;;5071118;28;20041;-59
2023/06/13 00:40:40;;;;;;;5.32;3.72;;;20.90;65.40;;;;;;5071380;28;20048;-59
2023/06/13 00:43:06;;;;;;;7.10;3.85;;;20.90;65.40;;;;;;5071439;28;20495;-60
2023/06/13 00:45:33;;;;;;;6.28;4.07;;;20.80;65.40;;;;;;5071370;28;20045;-60
2023/06/13 00:48:02;;;;;;;5.88;4.10;;;20.60;65.30;;;;;;5071148;28;20024;-60
2023/06/13 00:50:33;;;;;;;7.45;4.15;;;20.70;65.30;;;;;;5071287;28;20044;-58
2023/06/13 00:53:03;;;;;;;7.50;3.92;;;20.70;65.70;;;;;;5071321;28;20036;-59
2023/06/13 00:55:29;;;;;;;7.03;4.03;;;20.60;65.60;;;;;;5071188;28;20040;-59
2023/06/13 00:58:06;;;;;;;7.20;4.25;;;20.60;65.60;;;;;;5071114;28;20364;-59
2023/06/13 01:00:34;;;;;;;7.60;4.20;;;20.50;65.70;;;;;;5052016;28;20033;-60
2023/06/13 01:03:02;;;;;;;8.35;3.90;;;20.50;65.80;;;;;;5070650;28;20048;-59
2023/06/13 01:05:31;;;;;;;8.35;4.03;;;20.40;65.90;;;;;;5052061;28;20040;-59
2023/06/13 01:07:59;;;;;;;7.60;4.15;;;20.40;66.00;;;;;;5052620;28;20037;-66
2023/06/13 01:10:29;;;;;;;7.07;4.03;;;20.40;66.00;;;;;;5050296;28;20119;-58
2023/06/13 01:13:08;;;;;;;7.85;4.07;;;20.40;66.00;;;;;;5070039;28;20386;-58
2023/06/13 01:15:42;;;;;;;8.25;4.40;;;20.30;66.00;;;;;;5070815;28;20368;-60
2023/06/13 01:18:10;;;;;;;9.07;4.45;;;20.30;66.00;;;;;;5052798;28;20043;-59
2023/06/13 01:20:37;;;;;;;10.35;4.10;;;20.20;66.30;;;;;;5070053;28;20044;-61
2023/06/13 01:23:06;;;;;;;8.75;4.40;;;20.20;66.30;;;;;;5059587;28;20033;-58
2023/06/13 01:25:42;;;;;;;5.82;3.97;;;20.20;66.50;;;;;;5050834;28;20048;-60
2023/06/13 01:28:13;;;;;;;11.77;4.40;;;20.20;66.50;;;;;;5050528;28;20041;-60
2023/06/13 01:30:40;;;;;;;9.45;4.45;;;20.10;66.50;;;;;;5050551;28;20045;-58
2023/06/13 01:33:08;;;;;;;14.82;4.43;;;20.10;66.60;;;;;;5065671;28;20047;-60
2023/06/13 01:35:35;;;;;;;8.55;4.22;;;20.10;66.60;;;;;;5070267;28;20052;-60
2023/06/13 01:38:05;;;;;;;8.48;4.18;;;20.10;66.70;;;;;;5070606;28;20387;-60
2023/06/13 01:40:31;;;;;;;8.18;4.40;;;20.00;66.90;;;;;;5072534;28;20468;-59
2023/06/13 01:42:56;;;;;;;7.70;4.30;;;20.00;66.90;;;;;;5074566;28;20037;-59
2023/06/13 01:45:23;;;;;;;6.13;4.28;;;19.90;67.20;;;;;;5074651;28;20056;-61
2023/06/13 01:48:10;;;;;;;9.00;4.40;;;19.90;67.10;;;;;;5074618;28;20511;-60
2023/06/13 01:50:53;;;;;;;7.07;4.75;;;19.80;67.20;;;;;;5074339;28;20045;-59
2023/06/13 01:53:27;;;;;;;9.60;4.20;;;19.80;67.40;;;;;;5074362;28;20056;-59
2023/06/13 01:55:56;;;;;;;;;;;19.70;67.40;;;;;;5075127;28;20051;-59
2023/06/13 01:58:24;;;;;;;9.18;4.72;;;19.70;67.80;;;;;;5055836;28;19920;-60
2023/06/13 02:00:55;;;;;;;9.38;5.15;;;19.60;67.60;;;;;;5073449;28;20071;-59
2023/06/13 02:03:21;;;;;;;9.52;4.93;;;19.50;67.90;;;;;;5074497;28;20037;-58
2023/06/13 02:05:51;;;;;;;8.93;4.78;;;19.50;67.90;;;;;;5073660;28;20399;-59
2023/06/13 02:08:17;;;;;;;8.93;4.68;;;19.50;68.30;;;;;;5073626;28;20036;-58
2023/06/13 02:10:43;;;;;;;8.25;4.90;;;19.40;68.20;;;;;;5055414;28;20040;-60
2023/06/13 02:13:09;;;;;;;9.32;4.75;;;19.40;68.50;;;;;;5074182;28;20074;-59
2023/06/13 02:15:35;;;;;;;8.55;4.97;;;19.40;68.50;;;;;;5074103;28;20118;-60
2023/06/13 02:18:02;;;;;;;7.72;4.93;;;19.30;68.60;;;;;;5074272;28;20032;-59
2023/06/13 02:20:28;;;;;;;7.95;4.68;;;19.20;68.70;;;;;;5073690;28;20174;-59
2023/06/13 02:22:54;;;;;;;8.45;4.90;;;19.20;68.80;;;;;;5073918;28;20428;-59
2023/06/13 02:25:20;;;;;;;8.63;5.05;;;19.20;69.00;;;;;;5073948;28;20222;-60
2023/06/13 02:27:45;;;;;;;8.20;4.90;;;19.10;69.00;;;;;;5056035;28;20048;-59
2023/06/13 02:30:11;;;;;;;7.40;4.40;;;19.10;69.20;;;;;;5073722;28;20036;-61
2023/06/13 02:32:39;;;;;;;6.57;4.80;;;19.00;69.20;;;;;;5056044;28;20056;-58
2023/06/13 02:35:07;;;;;;;7.43;4.93;;;19.00;69.40;;;;;;5053108;28;20059;-60
2023/06/13 02:37:33;;;;;;;10.30;5.20;;;19.00;69.50;;;;;;5053692;28;20045;-59
2023/06/13 02:39:58;;;;;;;8.32;5.28;;;19.00;69.50;;;;;;5053622;28;20037;-59
2023/06/13 02:42:27;;;;;;;8.57;4.88;;;18.90;69.60;;;;;;5053726;28;20037;-59
2023/06/13 02:44:52;;;;;;;8.00;5.03;;;18.90;69.70;;;;;;5063342;28;20033;-58
2023/06/13 02:47:21;;;;;;;10.23;5.32;;;18.80;69.80;;;;;;5073693;28;20033;-61
2023/06/13 02:49:47;;;;;;;10.15;4.95;;;18.80;70.10;;;;;;5072702;28;20041;-60
2023/06/13 02:52:12;;;;;;;9.45;5.25;;;18.70;70.30;;;;;;5055283;28;20040;-60
2023/06/13 02:54:38;;;;;;;8.88;5.10;;;18.70;70.30;;;;;;5073406;28;20387;-59
2023/06/13 02:57:05;;;;;;;11.52;5.70;;;18.70;70.40;;;;;;5073526;28;20044;-58
2023/06/13 02:59:32;;;;;;;7.93;5.30;;;18.80;70.50;;;;;;5055016;28;20041;-58
2023/06/13 03:01:58;;;;;;;9.15;5.57;;;18.60;70.60;;;;;;5073232;28;20080;-59
2023/06/13 03:04:24;;;;;;;9.30;4.97;;;18.60;70.70;;;;;;5071179;28;20060;-59
2023/06/13 03:06:51;;;;;;;8.50;5.22;;;18.60;70.80;;;;;;5072967;28;20139;-59
2023/06/13 03:09:17;;;;;;;9.35;5.47;;;18.50;70.80;;;;;;5072826;28;20037;-58
2023/06/13 03:11:43;;;;;;;9.43;5.53;;;18.50;71.10;;;;;;5054999;28;20703;-59
2023/06/13 03:14:09;;;;;;;9.70;5.47;;;18.50;71.20;;;;;;5072678;28;20040;-60
2023/06/13 03:16:35;;;;;;;9.77;5.50;;;18.40;71.30;;;;;;5072593;28;20437;-59
2023/06/13 03:19:02;;;;;;;9.98;5.22;;;18.40;71.40;;;;;;5072825;28;20047;-58
2023/06/13 03:21:28;;;;;;;8.60;5.70;;;18.40;71.70;;;;;;5072781;28;20456;-59
2023/06/13 03:23:55;;;;;;;9.77;5.30;;;18.40;71.90;;;;;;5054725;28;20047;-61
2023/06/13 03:26:20;;;;;;;10.52;5.20;;;18.30;72.10;;;;;;5072648;28;20051;-59
2023/06/13 03:28:46;;;;;;;9.52;5.43;;;18.30;72.20;;;;;;5054675;28;20040;-58
2023/06/13 03:31:12;;;;;;;9.60;5.30;;;18.30;72.20;;;;;;5072853;28;20081;-59
2023/06/13 03:33:38;;;;;;;9.07;5.50;;;18.20;72.50;;;;;;5072391;28;20044;-58
2023/06/13 03:36:04;;;;;;;9.80;5.10;;;18.20;72.50;;;;;;5071908;28;20036;-59
2023/06/13 03:38:29;;;;;;;9.65;5.13;;;18.20;72.50;;;;;;5072191;28;20046;-59
2023/06/13 03:40:55;;;;;;;11.05;5.50;;;18.20;72.60;;;;;;5072099;28;20085;-60
2023/06/13 03:43:21;;;;;;;9.80;4.95;;;18.20;72.90;;;;;;5071902;28;20040;-59
2023/06/13 03:45:48;;;;;;;10.32;5.18;;;18.20;73.10;;;;;;5072241;28;20033;-59
2023/06/13 03:48:14;;;;;;;9.35;5.43;;;18.10;73.00;;;;;;5072196;28;20487;-58
2023/06/13 03:50:40;;;;;;;9.52;5.30;;;18.10;73.20;;;;;;5054504;28;20037;-59
2023/06/13 03:53:05;;;;;;;9.15;6.03;;;18.10;73.90;;;;;;5062321;28;20047;-60
2023/06/13 03:55:33;;;;;;;9.05;5.05;;;18.10;73.40;;;;;;5052309;28;20037;-60
2023/06/13 03:57:58;;;;;;;8.52;5.57;;;18.10;73.50;;;;;;5052128;28;20036;-59
2023/06/13 04:00:25;;;;;;;7.05;5.07;;;18.10;73.70;;;;;;5052078;28;20045;-59
2023/06/13 04:02:52;;;;;;;7.95;5.07;;;18.10;73.70;;;;;;5052333;28;20471;-59
2023/06/13 04:05:18;;;;;;;7.95;5.18;;;18.00;74.00;;;;;;5051768;28;20033;-59
2023/06/13 04:07:44;;;;;;;10.63;5.20;;;18.00;74.10;;;;;;5052658;28;20086;-58
2023/06/13 04:10:10;;;;;;;9.90;5.38;;;18.00;74.30;;;;;;5071953;28;20430;-59
2023/06/13 04:12:36;;;;;;;8.43;5.35;;;18.00;74.50;;;;;;5071941;28;20040;-57
2023/06/13 04:15:04;;;;;;;9.20;5.35;;;18.00;74.70;;;;;;5053985;28;20047;-57
2023/06/13 04:17:31;;;;;;;9.13;5.47;;;18.00;74.80;;;;;;5071903;28;20525;-58
2023/06/13 04:19:57;;;;;;;8.60;5.25;;;18.00;75.00;;;;;;5071506;28;20033;-59
2023/06/13 04:22:23;;;;;;;9.25;5.30;;;18.00;75.10;;;;;;5071439;28;20032;-59
2023/06/13 04:24:50;;;;;;;7.78;5.00;;;18.00;75.20;;;;;;5071378;28;20555;-59
2023/06/13 04:27:19;;;;;;;10.13;5.40;;;18.00;75.30;;;;;;5053656;28;20047;-59
2023/06/13 04:29:47;;;;;;;10.13;5.05;;;18.00;75.30;;;;;;5071458;28;20079;-58
2023/06/13 04:32:17;;;;;;;7.93;4.78;;;18.00;75.50;;;;;;5071212;28;20369;-59
2023/06/13 04:34:52;;;;;;;8.13;5.55;;;18.10;75.40;;;;;;5071022;28;20034;-58
2023/06/13 04:37:23;;;;;;;7.55;4.88;;;18.10;75.60;;;;;;5071450;28;20409;-60
2023/06/13 04:39:51;;;;;;;10.50;4.95;;;18.10;75.90;;;;;;5071378;28;20041;-59
2023/06/13 04:42:24;;;;;;;6.97;5.00;;;18.10;76.00;;;;;;5053119;28;20123;-59
2023/06/13 04:44:58;;;;;;;9.33;4.90;;;18.10;76.00;;;;;;5071114;28;20036;-59
2023/06/13 04:47:24;;;;;;;7.50;5.32;;;18.10;76.10;;;;;;5071431;28;20615;-59
2023/06/13 04:49:58;;;;;;;7.28;5.10;;;18.10;76.10;;;;;;5053113;28;20079;-59
2023/06/13 04:52:27;;;;;;;8.10;5.05;;;18.10;76.40;;;;;;5070654;28;20037;-59
2023/06/13 04:54:54;;;;;;;10.15;5.03;;;18.10;76.40;;;;;;5071143;28;20120;-60
2023/06/13 04:57:21;;;;;;;11.15;5.18;;;18.10;76.50;;;;;;5071232;28;20032;-59
2023/06/13 04:59:47;;;;;;;9.98;5.07;;;18.00;76.60;;;;;;5052901;28;20669;-59
2023/06/13 05:02:14;;;;;;;9.20;5.00;;;18.00;76.80;;;;;;5070399;28;20048;-61
2023/06/13 05:04:40;;;;;;;8.52;5.25;;;18.00;76.80;;;;;;5070335;28;20068;-58
2023/06/13 05:07:06;;;;;;;8.73;5.15;;;18.00;76.80;;;;;;5071112;28;20082;-58
2023/06/13 05:09:32;;;;;;;9.65;4.95;;;18.00;76.90;;;;;;5053107;28;20029;-60
2023/06/13 05:11:58;;;;;;;6.90;4.68;;;18.00;77.30;;;;;;5070669;28;20083;-58
2023/06/13 05:14:24;;;;;;;6.68;4.53;;;18.00;77.20;;;;;;5070668;28;20432;-59
2023/06/13 05:16:50;;;;;;;9.80;4.95;;;18.10;77.60;;;;;;5070923;28;20151;-58
2023/06/13 05:19:17;;;;;;;8.32;5.30;;;18.10;77.60;;;;;;5070646;28;20036;-59
2023/06/13 05:21:43;;;;;;;8.13;4.57;;;18.20;77.50;;;;;;5069549;28;20028;-57
2023/06/13 05:24:10;;;;;;;9.38;4.97;;;18.20;77.50;;;;;;5053199;28;20384;-59
2023/06/13 05:26:36;;;;;;;8.65;4.80;;;18.20;77.60;;;;;;5070402;28;20043;-58
2023/06/13 05:29:05;;;;;;;10.38;4.93;;;18.20;77.50;;;;;;5070870;28;20392;-60
2023/06/13 05:31:33;;;;;;;7.72;4.45;;;18.20;77.80;;;;;;5070514;28;20040;-59
2023/06/13 05:34:00;;;;;;;9.65;4.93;;;18.30;77.50;;;;;;5070855;28;20051;-59
2023/06/13 05:36:26;;;;;;;7.85;4.93;;;18.30;77.70;;;;;;5070462;28;20040;-57
2023/06/13 05:38:54;;;;;;;11.98;5.15;;;18.30;77.70;;;;;;5052460;28;20054;-60
2023/06/13 05:41:19;;;;;;;7.45;4.53;;;18.40;77.90;;;;;;5070521;28;20115;-58
2023/06/13 05:43:45;;;;;;;6.38;4.50;;;18.40;77.70;;;;;;5070414;28;20115;-60
2023/06/13 05:46:13;;;;;;;11.07;5.00;;;18.50;77.80;;;;;;5070271;28;20033;-60
2023/06/13 05:48:39;;;;;;;7.43;4.78;;;18.50;77.80;;;;;;5070553;28;20535;-58
2023/06/13 05:51:05;;;;;;;8.93;5.18;;;18.60;77.80;;;;;;5052683;28;20119;-58
2023/06/13 05:53:31;;;;;;;10.88;4.60;;;18.60;77.60;;;;;;5070062;28;20395;-58
2023/06/13 05:55:57;;;;;;;6.22;4.03;;;18.60;77.60;;;;;;5070599;28;20032;-60
2023/06/13 05:58:22;;;;;;;8.30;4.55;;;18.60;77.90;;;;;;5070383;28;20043;-58
2023/06/13 06:00:48;;;;;;;10.02;4.47;;;18.70;77.90;;;;;;5070254;28;20036;-58
2023/06/13 06:03:14;;;;;;;8.32;4.72;;;18.70;77.80;;;;;;5070412;28;20041;-59
2023/06/13 06:05:40;;;;;;;8.60;4.38;;;18.70;77.80;;;;;;5070100;28;20037;-59
2023/06/13 06:08:05;;;;;;;7.07;4.35;;;18.70;77.70;;;;;;5070477;28;20245;-59
2023/06/13 06:10:31;;;;;;;7.50;4.55;;;18.80;77.70;;;;;;5052328;28;20119;-59
2023/06/13 06:12:57;;;;;;;8.85;4.50;;;18.90;77.90;;;;;;5070448;28;20044;-59
2023/06/13 06:15:22;;;;;;;9.27;4.47;;;18.80;78.00;;;;;;5070419;28;20056;-59
2023/06/13 06:17:50;;;;;;;7.05;4.68;;;18.90;78.00;;;;;;5069969;28;20076;-59
2023/06/13 06:20:16;;;;;;;7.80;4.35;;;19.00;78.30;;;;;;5052082;28;20522;-58
2023/06/13 06:22:42;;;;;;;8.38;4.10;;;19.10;78.10;;;;;;5069880;28;20110;-57
2023/06/13 06:25:12;;;;;;;22.38;4.95;;;19.10;78.20;;;;;;5070304;28;20463;-60
2023/06/13 06:27:39;;;;;;;10.18;4.38;;;19.20;78.10;;;;;;5073777;28;20511;-58
2023/06/13 06:30:06;;;;;;;10.75;4.70;;;19.20;77.70;;;;;;5053394;28;20072;-59
2023/06/13 06:32:31;;;;;;;9.35;4.60;;;19.30;77.80;;;;;;5052805;28;20084;-59
2023/06/13 06:34:57;;;;;;;7.53;4.22;;;19.30;78.00;;;;;;5060572;28;20066;-59
2023/06/13 06:37:24;;;;;;;5.78;3.85;;;19.40;77.60;;;;;;5057531;28;20040;-59
2023/06/13 06:39:50;;;;;;;7.93;4.05;;;19.40;77.30;;;;;;5056215;28;20134;-57
2023/06/13 06:42:16;;;;;;;9.15;4.13;;;19.50;77.80;;;;;;5041178;28;20028;-58
2023/06/13 06:44:41;;;;;;;7.88;4.35;;;19.50;77.80;;;;;;5057475;28;20036;-58
2023/06/13 06:47:07;;;;;;;7.45;4.22;;;19.60;77.70;;;;;;5057809;28;20037;-58
2023/06/13 06:49:33;;;;;;;10.43;4.55;;;19.70;77.60;;;;;;5059002;28;20424;-58
2023/06/13 06:51:58;;;;;;;11.00;4.15;;;19.70;77.50;;;;;;5057721;28;20048;-59
2023/06/13 06:54:25;;;;;;;7.32;4.20;;;19.80;77.50;;;;;;5057823;28;20036;-59
2023/06/13 06:56:50;;;;;;;8.07;4.53;;;19.90;77.60;;;;;;5057520;28;20060;-58
2023/06/13 06:59:16;;;;;;;9.80;4.00;;;19.90;77.70;;;;;;5059116;28;20454;-59
2023/06/13 07:01:42;;;;;;;9.40;4.03;;;19.90;77.30;;;;;;5057262;28;20048;-58
2023/06/13 07:04:07;;;;;;;7.03;4.10;;;20.00;77.50;;;;;;5058167;28;20056;-58
2023/06/13 07:06:33;;;;;;;8.48;3.83;;;20.10;77.20;;;;;;5057765;28;20040;-59
2023/06/13 07:08:58;;;;;;;6.97;4.15;;;20.10;77.00;;;;;;5061527;28;20041;-59
2023/06/13 07:11:24;;;;;;;9.38;3.75;;;20.10;76.90;;;;;;5058519;28;20127;-59
2023/06/13 07:13:50;;;;;;;8.88;3.90;;;20.10;77.10;;;;;;5055451;28;20036;-59
2023/06/13 07:16:16;;;;;;;7.07;3.65;;;20.20;77.10;;;;;;5058887;28;20127;-58
2023/06/13 07:18:41;;;;;;;8.80;4.00;;;20.20;77.60;;;;;;5062847;28;20070;-59
2023/06/13 07:21:07;;;;;;;6.15;3.88;;;20.30;77.20;;;;;;5065353;28;20060;-59
2023/06/13 07:23:33;;;;;;;6.95;3.92;;;20.40;77.20;;;;;;5056697;28;20555;-58
2023/06/13 07:25:58;;;;;;;10.95;3.88;;;20.40;77.20;;;;;;5063419;28;20055;-57
2023/06/13 07:28:24;;;;;;;7.60;3.78;;;20.50;76.80;;;;;;5071438;28;20060;-59
2023/06/13 07:30:50;;;;;;;8.07;3.88;;;20.50;76.90;;;;;;5071347;28;20456;-59
2023/06/13 07:33:16;;;;;;;6.70;3.47;;;20.60;77.10;;;;;;5071073;28;20052;-58
2023/06/13 07:35:41;;;;;;;8.15;3.72;;;20.70;77.10;;;;;;5059555;28;20128;-58
2023/06/13 07:38:07;;;;;;;8.70;3.97;;;20.70;77.00;;;;;;5056006;28;20041;-59
2023/06/13 07:40:33;;;;;;;7.57;3.83;;;20.80;77.00;;;;;;5067049;28;20480;-63
2023/06/13 07:42:58;;;;;;;11.32;3.72;;;20.90;76.60;;;;;;5066473;28;20387;-59
2023/06/13 07:45:24;;;;;;;7.50;3.50;;;20.90;76.70;;;;;;5071942;28;20047;-59
2023/06/13 07:47:50;;;;;;;7.93;3.85;;;21.00;76.90;;;;;;5054317;28;20040;-59
2023/06/13 07:50:16;;;;;;;8.75;3.83;;;21.00;76.20;;;;;;5072154;28;20101;-59
2023/06/13 07:52:42;;;;;;;8.95;3.50;;;21.10;76.10;;;;;;5054375;28;20468;-58
2023/06/13 07:55:08;;;;;;;6.13;3.83;;;21.10;75.90;;;;;;5071454;28;20043;-58
2023/06/13 07:57:34;;;;;;;7.68;4.05;;;21.10;75.90;;;;;;5067292;28;20123;-59
2023/06/13 08:00:00;;;;;;;8.05;4.07;;;21.20;75.50;;;;;;5066379;28;20123;-59
2023/06/13 08:02:26;;;;;;;7.25;3.33;;;21.30;75.30;;;;;;5056708;28;20052;-58
2023/06/13 08:04:52;;;;;;;8.40;3.58;;;21.30;75.30;;;;;;5050586;28;20045;-57
2023/06/13 08:07:18;;;;;;;6.32;4.13;;;21.30;75.10;;;;;;5053956;28;20688;-60
2023/06/13 08:09:43;;;;;;;7.68;3.90;;;21.40;75.50;;;;;;5050144;28;20047;-59
2023/06/13 08:12:10;;;;;;;7.10;3.72;;;21.40;75.50;;;;;;5051480;28;20040;-59
2023/06/13 08:14:36;;;;;;;6.95;3.72;;;21.50;75.30;;;;;;5067131;28;20048;-60
2023/06/13 08:17:02;;;;;;;8.40;4.05;;;21.60;74.70;;;;;;5064764;28;20087;-59
2023/06/13 08:19:27;;;;;;;7.18;4.35;;;21.70;74.80;;;;;;5066812;28;20051;-58
2023/06/13 08:21:53;;;;;;;9.15;3.95;;;21.70;74.90;;;;;;5057230;28;20041;-58
2023/06/13 08:24:19;;;;;;;8.10;4.03;;;21.80;74.70;;;;;;5065415;28;20037;-59
2023/06/13 08:26:44;;;;;;;10.88;3.83;;;21.80;75.00;;;;;;5057862;28;20033;-58
2023/06/13 08:29:11;;;;;;;9.45;4.18;;;21.90;75.50;;;;;;5057784;28;20098;-60
2023/06/13 08:31:37;;;;;;;7.75;4.20;;;22.00;75.30;;;;;;5053552;28;20041;-59
2023/06/13 08:34:03;;;;;;;8.65;4.55;;;22.10;75.20;;;;;;5063060;28;20051;-59
2023/06/13 08:36:29;;;;;;;9.57;4.57;;;22.10;75.20;;;;;;5061036;28;20341;-59
2023/06/13 08:38:59;;;;;;;11.35;4.38;;;22.20;75.10;;;;;;5058864;28;20043;-59
2023/06/13 08:41:25;;;;;;;10.43;4.47;;;22.30;75.30;;;;;;5052896;28;20048;-59
2023/06/13 08:43:52;;;;;;;8.82;4.20;;;22.30;75.40;;;;;;5055723;28;20174;-58
2023/06/13 08:46:18;;;;;;;8.35;4.25;;;22.40;75.30;;;;;;5057643;28;20621;-59
2023/06/13 08:48:44;;;;;;;8.48;4.32;;;22.50;75.20;;;;;;5059472;28;20047;-59
2023/06/13 08:51:16;;;;;;;8.02;4.25;;;22.60;74.20;;;;;;5052393;28;20747;-58
2023/06/13 08:53:49;;;;;;;8.60;4.25;;;22.70;74.20;;;;;;5050562;28;20044;-60
2023/06/13 08:56:15;;;;;;;8.20;4.07;;;22.80;74.20;;;;;;5059760;28;20112;-59
2023/06/13 08:58:43;;;;;;;6.78;4.00;;;22.90;74.30;;;;;;5059401;28;20158;-59
2023/06/13 09:01:10;;;;;;;10.68;4.18;;;22.90;73.60;;;;;;5052467;28;20052;-59
2023/06/13 09:03:38;;;;;;;12.00;4.18;;;23.00;72.50;;;;;;5055288;28;20164;-60
2023/06/13 09:06:04;;;;;;;7.72;4.00;;;23.10;72.40;;;;;;5056522;28;20075;-58
2023/06/13 09:08:31;;;;;;;7.47;4.22;;;23.20;72.20;;;;;;5057031;28;20116;-59
2023/06/13 09:10:59;;;;;;;8.45;4.30;;;23.40;72.00;;;;;;5052267;28;20067;-59
2023/06/13 09:13:25;;;;;;;6.63;3.92;;;23.60;71.30;;;;;;5066146;28;20083;-60
2023/06/13 09:15:51;;;;;;;8.25;4.18;;;23.70;71.20;;;;;;5069769;28;20098;-59
2023/06/13 09:18:18;;;;;;;9.07;3.85;;;23.90;71.20;;;;;;5070559;28;20040;-58
2023/06/13 09:20:44;;;;;;;9.25;3.90;;;24.20;70.30;;;;;;5070088;28;20068;-59
2023/06/13 09:23:17;;;;;;;8.32;3.90;;;24.30;70.00;;;;;;5052311;28;20427;-59
2023/06/13 09:25:46;;;;;;;5.50;3.72;;;24.40;69.40;;;;;;5065574;28;20029;-60
2023/06/13 09:28:32;;;;;;;7.35;3.78;;;24.60;68.90;;;;;;5050426;28;20048;-58
2023/06/13 09:30:58;;;;;;;8.18;3.88;;;24.70;68.60;;;;;;5068414;28;20032;-59
2023/06/13 09:33:25;;;;;;;8.82;3.80;;;24.80;69.10;;;;;;5051609;28;20044;-59
2023/06/13 09:35:51;;;;;;;8.25;3.80;;;25.00;68.00;;;;;;5069192;28;20441;-58
2023/06/13 09:38:25;;;;;;;7.75;3.45;;;25.10;67.70;;;;;;5069523;28;20111;-59
2023/06/13 09:40:56;;;;;;;9.82;3.83;;;25.20;67.40;;;;;;5069401;28;20052;-59
2023/06/13 09:43:22;;;;;;;8.98;3.33;;;25.20;66.60;;;;;;5069268;28;20098;-58
2023/06/13 09:45:50;;;;;;;7.45;3.53;;;25.30;66.80;;;;;;5069517;28;20037;-59
2023/06/13 09:48:17;;;;;;;7.80;3.63;;;25.30;66.80;;;;;;5069490;28;20029;-58
2023/06/13 09:50:43;;;;;;;8.45;3.78;;;25.40;67.10;;;;;;5069073;28;20101;-60
2023/06/13 09:53:09;;;;;;;9.50;4.18;;;25.40;67.70;;;;;;5067953;28;20035;-58
2023/06/13 09:55:36;;;;;;;7.22;3.70;;;25.50;66.90;;;;;;5067238;28;20044;-59
2023/06/13 09:58:03;;;;;;;7.10;3.60;;;25.60;66.90;;;;;;5068742;28;20051;-60
2023/06/13 10:00:29;;;;;;;9.07;3.22;;;25.60;67.00;;;;;;5062751;28;20079;-59
2023/06/13 10:02:59;;;;;;;10.88;3.70;;;25.70;66.80;;;;;;5051155;28;20512;-59
2023/06/13 10:05:25;;;;;;;7.63;3.60;;;25.80;66.40;;;;;;5070280;28;20108;-58
2023/06/13 10:07:52;;;;;;;4.97;3.25;;;25.90;66.20;;;;;;5068116;28;20055;-58
2023/06/13 10:10:18;;;;;;;6.15;3.28;;;26.00;66.00;;;;;;5071783;28;20500;-60
2023/06/13 10:12:59;;;;;;;5.82;3.70;;;26.10;65.10;;;;;;5073189;28;20032;-59
2023/06/13 10:15:32;;;;;;;7.57;3.60;;;26.20;65.00;;;;;;5071950;28;20036;-59
2023/06/13 10:18:02;;;;;;;7.68;3.85;;;26.20;65.00;;;;;;5072410;28;20173;-59
2023/06/13 10:20:29;;;;;;;7.65;3.55;;;26.30;64.70;;;;;;5073479;28;20044;-58
2023/06/13 10:22:56;;;;;;;5.90;3.30;;;26.40;64.70;;;;;;5073305;28;20444;-59
2023/06/13 10:25:27;;;;;;;8.00;3.67;;;26.50;65.00;;;;;;5066576;28;20028;-59
2023/06/13 10:27:59;;;;;;;9.43;3.65;;;26.60;64.90;;;;;;5071058;28;20422;-57
2023/06/13 10:30:35;;;;;;;7.60;3.35;;;26.70;64.00;;;;;;5071656;28;20037;-59
2023/06/13 10:33:50;;;;;;;8.23;3.50;;;26.60;64.00;;;;;;5072045;28;20388;-58
2023/06/13 10:36:51;;;;;;;6.20;3.25;;;26.70;62.80;;;;;;5071305;28;20029;-59
2023/06/13 10:39:38;;;;;;;6.97;3.50;;;26.80;64.10;;;;;;5051819;28;20059;-58
2023/06/13 10:42:19;;;;;;;26.58;8.07;;;27.00;64.20;;;;;;5073210;28;20041;-58
2023/06/13 10:45:07;;;;;;;5.68;3.63;;;27.10;63.30;;;;;;5067197;28;20075;-60
2023/06/13 10:47:33;;;;;;;8.23;4.53;;;27.20;61.80;;;;;;5053615;28;20110;-59
2023/06/13 10:50:01;;;;;;;50.00;17.17;;;27.30;62.30;;;;;;5053275;28;20201;-58
2023/06/13 10:52:29;;;;;;;44.45;15.30;;;27.30;61.60;;;;;;5053409;28;20052;-58
2023/06/13 10:54:58;;;;;;;42.00;14.15;;;27.30;60.70;;;;;;5053023;28;20037;-60
2023/06/13 10:57:51;;;;;;;21.92;7.97;;;27.20;60.40;;;;;;5072451;28;20104;-59
2023/06/13 11:00:30;;;;;;;21.23;8.05;;;27.20;60.60;;;;;;5053814;28;20399;-58
2023/06/13 11:03:08;;;;;;;65.38;20.83;;;27.20;60.30;;;;;;5072749;28;20124;-59
2023/06/13 11:05:37;;;;;;;15.02;6.90;;;27.20;59.60;;;;;;5053859;28;20052;-58
2023/06/13 11:08:04;;;;;;;23.08;9.45;;;27.20;60.70;;;;;;5072814;28;20048;-58
2023/06/13 11:10:34;;;;;;;23.40;7.93;;;27.30;60.10;;;;;;5072761;28;20041;-59
2023/06/13 11:13:03;;;;;;;15.88;6.53;;;27.40;59.80;;;;;;5072790;28;20399;-58
2023/06/13 11:15:29;;;;;;;10.80;5.13;;;27.50;59.70;;;;;;5064682;28;20506;-57
2023/06/13 11:18:06;;;;;;;6.20;3.80;;;27.60;58.90;;;;;;5052793;28;20033;-59
2023/06/13 11:20:32;;;;;;;16.30;5.80;;;27.80;58.20;;;;;;5071658;28;20417;-57
2023/06/13 11:22:58;;;;;;;8.95;4.18;;;27.80;57.70;;;;;;5071929;28;20048;-58
2023/06/13 11:25:24;;;;;;;8.38;3.53;;;27.90;57.70;;;;;;5072531;28;20043;-59
2023/06/13 11:27:50;;;;;;;8.75;4.07;;;28.00;57.80;;;;;;5072647;28;20089;-57
2023/06/13 11:30:17;;;;;;;16.35;6.60;;;28.20;58.00;;;;;;5072512;28;20506;-58
2023/06/13 11:32:44;;;;;;;8.25;4.18;;;28.30;58.60;;;;;;5072149;28;20117;-58
2023/06/13 11:35:13;;;;;;;7.30;3.45;;;28.50;58.40;;;;;;5072048;28;20720;-59
2023/06/13 11:37:48;;;;;;;7.13;3.78;;;28.60;58.30;;;;;;5071901;28;20040;-59
2023/06/13 11:40:25;;;;;;;7.78;3.63;;;28.80;56.60;;;;;;5072607;28;20056;-60
2023/06/13 11:42:51;;;;;;;7.75;3.35;;;28.90;56.50;;;;;;5072223;28;20040;-60
2023/06/13 11:45:17;;;;;;;7.82;3.45;;;29.00;56.70;;;;;;5072160;28;20036;-62
2023/06/13 11:47:45;;;;;;;7.82;3.85;;;29.10;56.50;;;;;;5072273;28;20115;-59
2023/06/13 11:50:11;;;;;;;6.63;3.47;;;29.10;56.00;;;;;;5072489;28;20048;-60
2023/06/13 11:52:37;;;;;;;5.45;3.70;;;29.00;56.50;;;;;;5054487;28;20476;-60
2023/06/13 11:55:18;;;;;;;4.90;3.13;;;29.00;56.40;;;;;;5071427;28;20063;-58
2023/06/13 11:57:45;;;;;;;7.13;3.20;;;29.00;55.40;;;;;;5071897;28;20055;-60
2023/06/13 12:00:12;;;;;;;8.60;3.60;;;29.10;56.10;;;;;;5072218;28;20391;-59
2023/06/13 12:02:38;;;;;;;6.40;3.38;;;29.30;56.90;;;;;;5071905;28;20087;-60
2023/06/13 12:05:05;;;;;;;6.47;3.30;;;29.40;56.00;;;;;;5072076;28;20044;-60
2023/06/13 12:07:33;;;;;;;6.30;3.17;;;29.50;55.60;;;;;;5071757;28;20368;-57
2023/06/13 12:09:59;;;;;;;10.05;3.60;;;29.60;54.50;;;;;;5048785;28;20037;-55
2023/06/13 12:12:25;;;;;;;5.57;3.20;;;29.60;54.20;;;;;;5058028;28;20476;-54
2023/06/13 12:14:54;;;;;;;7.05;3.30;;;29.50;53.90;;;;;;5066833;28;20032;-57
2023/06/13 12:17:21;;;;;;;6.55;3.17;;;29.50;54.60;;;;;;5071371;28;20040;-61
2023/06/13 12:19:47;;;;;;;8.52;3.33;;;29.50;55.30;;;;;;5070938;28;20088;-59
2023/06/13 12:22:15;;;;;;;6.03;3.20;;;29.60;55.30;;;;;;5071457;28;20133;-60
2023/06/13 12:24:41;;;;;;;5.45;3.05;;;29.80;55.40;;;;;;5070963;28;20048;-59
2023/06/13 12:27:11;;;;;;;5.35;3.20;;;29.90;55.10;;;;;;5033231;28;20037;-60
2023/06/13 12:29:39;;;;;;;6.07;3.20;;;30.00;54.50;;;;;;5051076;28;20088;-60
2023/06/13 12:32:06;;;;;;;5.65;3.65;;;30.00;54.70;;;;;;5048661;28;20085;-59
2023/06/13 12:34:34;;;;;;;5.85;3.05;;;30.10;53.80;;;;;;5062111;28;20496;-59
2023/06/13 12:37:04;;;;;;;7.20;3.33;;;30.10;53.80;;;;;;5051078;28;20040;-59
2023/06/13 12:39:31;;;;;;;5.80;2.95;;;30.10;54.10;;;;;;5069752;28;20121;-60
2023/06/13 12:42:02;;;;;;;5.57;3.50;;;30.10;53.70;;;;;;5070923;28;20033;-60
2023/06/13 12:44:33;;;;;;;5.88;3.20;;;30.00;53.50;;;;;;5070451;28;20265;-60
2023/06/13 12:47:04;;;;;;;7.50;3.30;;;30.10;54.30;;;;;;5052396;28;20053;-59
2023/06/13 12:49:37;;;;;;;7.40;3.28;;;30.20;53.50;;;;;;5051034;28;20123;-59